sensor_id;sensor_type;location;lat;lon;timestamp;temperature;humidity
9225;DHT22;4647;48.072;11.616;2022-11-30T00:00:14;2.00;99.90
9225;DHT22;4647;48.072;11.616;2022-11-30T00:02:42;2.00;99.90
9225;DHT22;4647;48.072;11.616;2022-11-30T00:05:09;2.00;99.90
9225;DHT22;4647;48.072;11.616;2022-11-30T00:07:37;2.00;99.90
9225;DHT22;4647;48.072;11.616;2022-11-30T00:10:05;2.00;99.90
9225;DHT22;4647;48.072;11.616;2022-11-30T00:12:33;2.00;99.90
9225;DHT22;4647;48.072;11.616;2022-11-30T00:15:00;2.10;99.90
9225;DHT22;4647;48.072;11.616;2022-11-30T00:17:27;2.10;99.90
9225;DHT22;4647;48.072;11.616;2022-11-30T00:19:55;2.00;99.90
9225;DHT22;4647;48.072;11.616;2022-11-30T00:22:22;2.10;99.90
9225;DHT22;4647;48.072;11.616;2022-11-30T00:24:48;2.00;99.90
9225;DHT22;4647;48.072;11.616;2022-11-30T00:27:15;2.10;99.90
9225;DHT22;4647;48.072;11.616;2022-11-30T00:29:42;2.00;99.90
9225;DHT22;4647;48.072;11.616;2022-11-30T00:32:09;2.10;99.90
9225;DHT22;4647;48.072;11.616;2022-11-30T00:34:36;2.10;99.90
9225;DHT22;4647;48.072;11.616;2022-11-30T00:37:04;2.10;99.90
9225;DHT22;4647;48.072;11.616;2022-11-30T00:39:31;2.00;99.90
9225;DHT22;4647;48.072;11.616;2022-11-30T00:41:58;2.00;99.90
9225;DHT22;4647;48.072;11.616;2022-11-30T00:44:25;2.00;99.90
9225;DHT22;4647;48.072;11.616;2022-11-30T00:46:52;2.00;99.90
9225;DHT22;4647;48.072;11.616;2022-11-30T00:49:18;2.00;99.90
9225;DHT22;4647;48.072;11.616;2022-11-30T00:51:45;2.00;99.90
9225;DHT22;4647;48.072;11.616;2022-11-30T00:54:14;2.00;99.90
9225;DHT22;4647;48.072;11.616;2022-11-30T00:56:40;2.10;99.90
9225;DHT22;4647;48.072;11.616;2022-11-30T00:59:07;2.00;99.90
9225;DHT22;4647;48.072;11.616;2022-11-30T01:01:35;1.90;99.90
9225;DHT22;4647;48.072;11.616;2022-11-30T01:04:02;2.00;99.90
9225;DHT22;4647;48.072;11.616;2022-11-30T01:06:29;2.10;99.90
9225;DHT22;4647;48.072;11.616;2022-11-30T01:08:57;2.00;99.90
9225;DHT22;4647;48.072;11.616;2022-11-30T01:11:26;2.10;99.90
9225;DHT22;4647;48.072;11.616;2022-11-30T01:13:54;2.20;99.90
9225;DHT22;4647;48.072;11.616;2022-11-30T01:16:23;2.20;99.90
9225;DHT22;4647;48.072;11.616;2022-11-30T01:18:50;2.20;99.90
9225;DHT22;4647;48.072;11.616;2022-11-30T01:21:19;2.10;99.90
9225;DHT22;4647;48.072;11.616;2022-11-30T01:23:46;2.20;99.90
9225;DHT22;4647;48.072;11.616;2022-11-30T01:26:13;2.10;99.90
9225;DHT22;4647;48.072;11.616;2022-11-30T01:28:42;2.00;99.90
9225;DHT22;4647;48.072;11.616;2022-11-30T01:31:12;2.00;99.90
9225;DHT22;4647;48.072;11.616;2022-11-30T01:33:39;1.90;99.90
9225;DHT22;4647;48.072;11.616;2022-11-30T01:36:10;1.90;99.90
9225;DHT22;4647;48.072;11.616;2022-11-30T01:38:39;1.90;99.90
9225;DHT22;4647;48.072;11.616;2022-11-30T01:41:08;1.90;99.90
9225;DHT22;4647;48.072;11.616;2022-11-30T01:43:40;1.90;99.90
9225;DHT22;4647;48.072;11.616;2022-11-30T01:46:20;2.00;99.90
9225;DHT22;4647;48.072;11.616;2022-11-30T01:48:54;2.00;99.90
9225;DHT22;4647;48.072;11.616;2022-11-30T01:51:22;2.00;99.90
9225;DHT22;4647;48.072;11.616;2022-11-30T01:53:51;2.00;99.90
9225;DHT22;4647;48.072;11.616;2022-11-30T01:56:18;2.10;99.90
9225;DHT22;4647;48.072;11.616;2022-11-30T01:58:45;2.10;99.90
9225;DHT22;4647;48.072;11.616;2022-11-30T02:01:12;2.10;99.90
9225;DHT22;4647;48.072;11.616;2022-11-30T02:03:45;2.10;99.90
9225;DHT22;4647;48.072;11.616;2022-11-30T02:06:13;2.10;99.90
9225;DHT22;4647;48.072;11.616;2022-11-30T02:08:40;2.20;99.90
9225;DHT22;4647;48.072;11.616;2022-11-30T02:11:11;2.10;99.90
9225;DHT22;4647;48.072;11.616;2022-11-30T02:13:55;2.10;99.90
9225;DHT22;4647;48.072;11.616;2022-11-30T02:16:29;2.00;99.90
9225;DHT22;4647;48.072;11.616;2022-11-30T02:19:16;2.10;99.90
9225;DHT22;4647;48.072;11.616;2022-11-30T02:21:51;2.10;99.90
9225;DHT22;4647;48.072;11.616;2022-11-30T02:24:37;2.10;99.90
9225;DHT22;4647;48.072;11.616;2022-11-30T02:27:16;2.00;99.90
9225;DHT22;4647;48.072;11.616;2022-11-30T02:29:46;2.10;99.90
9225;DHT22;4647;48.072;11.616;2022-11-30T02:32:19;2.10;99.90
9225;DHT22;4647;48.072;11.616;2022-11-30T02:34:48;2.10;99.90
9225;DHT22;4647;48.072;11.616;2022-11-30T02:37:16;2.10;99.90
9225;DHT22;4647;48.072;11.616;2022-11-30T02:39:43;2.00;99.90
9225;DHT22;4647;48.072;11.616;2022-11-30T02:42:11;2.00;99.90
9225;DHT22;4647;48.072;11.616;2022-11-30T02:44:39;2.00;99.90
9225;DHT22;4647;48.072;11.616;2022-11-30T02:47:21;2.10;99.90
9225;DHT22;4647;48.072;11.616;2022-11-30T02:49:52;2.10;99.90
9225;DHT22;4647;48.072;11.616;2022-11-30T02:52:23;2.10;99.90
9225;DHT22;4647;48.072;11.616;2022-11-30T02:54:52;2.10;99.90
9225;DHT22;4647;48.072;11.616;2022-11-30T02:57:24;2.10;99.90
9225;DHT22;4647;48.072;11.616;2022-11-30T02:59:51;2.10;99.90
9225;DHT22;4647;48.072;11.616;2022-11-30T03:02:19;2.10;99.90
9225;DHT22;4647;48.072;11.616;2022-11-30T03:04:46;2.00;99.90
9225;DHT22;4647;48.072;11.616;2022-11-30T03:07:13;2.00;99.90
9225;DHT22;4647;48.072;11.616;2022-11-30T03:09:40;2.10;99.90
9225;DHT22;4647;48.072;11.616;2022-11-30T03:12:06;2.20;99.90
9225;DHT22;4647;48.072;11.616;2022-11-30T03:14:33;2.20;99.90
9225;DHT22;4647;48.072;11.616;2022-11-30T03:17:00;2.30;99.90
9225;DHT22;4647;48.072;11.616;2022-11-30T03:19:28;2.30;99.90
9225;DHT22;4647;48.072;11.616;2022-11-30T03:21:55;2.30;99.90
9225;DHT22;4647;48.072;11.616;2022-11-30T03:24:22;2.30;99.90
9225;DHT22;4647;48.072;11.616;2022-11-30T03:26:50;2.00;99.90
9225;DHT22;4647;48.072;11.616;2022-11-30T03:29:17;1.90;99.90
9225;DHT22;4647;48.072;11.616;2022-11-30T03:31:44;1.90;99.90
9225;DHT22;4647;48.072;11.616;2022-11-30T03:34:11;2.00;99.90
9225;DHT22;4647;48.072;11.616;2022-11-30T03:36:39;1.90;99.90
9225;DHT22;4647;48.072;11.616;2022-11-30T03:39:06;2.00;99.90
9225;DHT22;4647;48.072;11.616;2022-11-30T03:41:34;1.90;99.90
9225;DHT22;4647;48.072;11.616;2022-11-30T03:44:01;2.00;99.90
9225;DHT22;4647;48.072;11.616;2022-11-30T03:46:28;2.10;99.90
9225;DHT22;4647;48.072;11.616;2022-11-30T03:48:55;2.20;99.90
9225;DHT22;4647;48.072;11.616;2022-11-30T03:51:21;2.10;99.90
9225;DHT22;4647;48.072;11.616;2022-11-30T03:53:50;2.10;99.90
9225;DHT22;4647;48.072;11.616;2022-11-30T03:56:17;2.10;99.90
9225;DHT22;4647;48.072;11.616;2022-11-30T03:58:43;2.20;99.90
9225;DHT22;4647;48.072;11.616;2022-11-30T04:01:13;2.20;99.90
9225;DHT22;4647;48.072;11.616;2022-11-30T04:03:41;2.20;99.90
9225;DHT22;4647;48.072;11.616;2022-11-30T04:06:09;2.20;99.90
9225;DHT22;4647;48.072;11.616;2022-11-30T04:08:37;2.10;99.90
9225;DHT22;4647;48.072;11.616;2022-11-30T04:11:06;2.10;99.90
9225;DHT22;4647;48.072;11.616;2022-11-30T04:13:34;2.10;99.90
9225;DHT22;4647;48.072;11.616;2022-11-30T04:16:02;2.10;99.90
9225;DHT22;4647;48.072;11.616;2022-11-30T04:18:30;2.00;99.90
9225;DHT22;4647;48.072;11.616;2022-11-30T04:20:59;2.10;99.90
9225;DHT22;4647;48.072;11.616;2022-11-30T04:23:29;2.00;99.90
9225;DHT22;4647;48.072;11.616;2022-11-30T04:25:56;2.00;99.90
9225;DHT22;4647;48.072;11.616;2022-11-30T04:28:24;2.00;99.90
9225;DHT22;4647;48.072;11.616;2022-11-30T04:30:52;2.00;99.90
9225;DHT22;4647;48.072;11.616;2022-11-30T04:33:19;2.10;99.90
9225;DHT22;4647;48.072;11.616;2022-11-30T04:35:49;2.20;99.90
9225;DHT22;4647;48.072;11.616;2022-11-30T04:38:17;2.20;99.90
9225;DHT22;4647;48.072;11.616;2022-11-30T04:40:43;2.20;99.90
9225;DHT22;4647;48.072;11.616;2022-11-30T04:43:11;2.20;99.90
9225;DHT22;4647;48.072;11.616;2022-11-30T04:45:40;2.20;99.90
9225;DHT22;4647;48.072;11.616;2022-11-30T04:48:07;2.20;99.90
9225;DHT22;4647;48.072;11.616;2022-11-30T04:50:34;2.10;99.90
9225;DHT22;4647;48.072;11.616;2022-11-30T04:53:01;2.20;99.90
9225;DHT22;4647;48.072;11.616;2022-11-30T04:55:28;2.10;99.90
9225;DHT22;4647;48.072;11.616;2022-11-30T04:57:55;2.10;99.90
9225;DHT22;4647;48.072;11.616;2022-11-30T05:00:23;2.00;99.90
9225;DHT22;4647;48.072;11.616;2022-11-30T05:02:51;2.00;99.90
9225;DHT22;4647;48.072;11.616;2022-11-30T05:05:18;2.10;99.90
9225;DHT22;4647;48.072;11.616;2022-11-30T05:07:48;2.20;99.90
9225;DHT22;4647;48.072;11.616;2022-11-30T05:10:15;2.10;99.90
9225;DHT22;4647;48.072;11.616;2022-11-30T05:12:42;2.20;99.90
9225;DHT22;4647;48.072;11.616;2022-11-30T05:15:09;2.30;99.90
9225;DHT22;4647;48.072;11.616;2022-11-30T05:17:36;2.30;99.90
9225;DHT22;4647;48.072;11.616;2022-11-30T05:20:06;2.30;99.90
9225;DHT22;4647;48.072;11.616;2022-11-30T05:22:33;2.20;99.90
9225;DHT22;4647;48.072;11.616;2022-11-30T05:25:00;2.20;99.90
9225;DHT22;4647;48.072;11.616;2022-11-30T05:27:27;2.10;99.90
9225;DHT22;4647;48.072;11.616;2022-11-30T05:29:54;2.10;99.90
9225;DHT22;4647;48.072;11.616;2022-11-30T05:32:21;2.10;99.90
9225;DHT22;4647;48.072;11.616;2022-11-30T05:34:48;2.10;99.90
9225;DHT22;4647;48.072;11.616;2022-11-30T05:37:16;2.00;99.90
9225;DHT22;4647;48.072;11.616;2022-11-30T05:39:43;2.00;99.90
9225;DHT22;4647;48.072;11.616;2022-11-30T05:42:10;1.90;99.90
9225;DHT22;4647;48.072;11.616;2022-11-30T05:44:37;2.00;99.90
9225;DHT22;4647;48.072;11.616;2022-11-30T05:47:04;2.10;99.90
9225;DHT22;4647;48.072;11.616;2022-11-30T05:49:31;2.10;99.90
9225;DHT22;4647;48.072;11.616;2022-11-30T05:51:57;2.00;99.90
9225;DHT22;4647;48.072;11.616;2022-11-30T05:54:26;2.00;99.90
9225;DHT22;4647;48.072;11.616;2022-11-30T05:56:52;2.00;99.90
9225;DHT22;4647;48.072;11.616;2022-11-30T05:59:19;2.00;99.90
9225;DHT22;4647;48.072;11.616;2022-11-30T06:01:46;2.00;99.90
9225;DHT22;4647;48.072;11.616;2022-11-30T06:04:13;2.10;99.90
9225;DHT22;4647;48.072;11.616;2022-11-30T06:06:40;2.10;99.90
9225;DHT22;4647;48.072;11.616;2022-11-30T06:09:07;2.20;99.90
9225;DHT22;4647;48.072;11.616;2022-11-30T06:11:35;2.20;99.90
9225;DHT22;4647;48.072;11.616;2022-11-30T06:14:02;2.10;99.90
9225;DHT22;4647;48.072;11.616;2022-11-30T06:16:29;2.10;99.90
9225;DHT22;4647;48.072;11.616;2022-11-30T06:18:56;2.10;99.90
9225;DHT22;4647;48.072;11.616;2022-11-30T06:21:23;2.10;99.90
9225;DHT22;4647;48.072;11.616;2022-11-30T06:23:50;2.10;99.90
9225;DHT22;4647;48.072;11.616;2022-11-30T06:26:17;2.20;99.90
9225;DHT22;4647;48.072;11.616;2022-11-30T06:28:45;2.30;99.90
9225;DHT22;4647;48.072;11.616;2022-11-30T06:31:12;2.30;99.90
9225;DHT22;4647;48.072;11.616;2022-11-30T06:33:39;2.30;99.90
9225;DHT22;4647;48.072;11.616;2022-11-30T06:36:06;2.30;99.90
9225;DHT22;4647;48.072;11.616;2022-11-30T06:38:33;2.30;99.90
9225;DHT22;4647;48.072;11.616;2022-11-30T06:41:05;2.30;99.90
9225;DHT22;4647;48.072;11.616;2022-11-30T06:43:33;2.40;99.90
9225;DHT22;4647;48.072;11.616;2022-11-30T06:46:02;2.40;99.90
9225;DHT22;4647;48.072;11.616;2022-11-30T06:48:29;2.40;99.90
9225;DHT22;4647;48.072;11.616;2022-11-30T06:50:56;2.50;99.90
9225;DHT22;4647;48.072;11.616;2022-11-30T06:53:25;2.50;99.90
9225;DHT22;4647;48.072;11.616;2022-11-30T06:55:52;2.50;99.90
9225;DHT22;4647;48.072;11.616;2022-11-30T06:58:19;2.60;99.90
9225;DHT22;4647;48.072;11.616;2022-11-30T07:00:46;2.50;99.90
9225;DHT22;4647;48.072;11.616;2022-11-30T07:03:14;2.50;99.90
9225;DHT22;4647;48.072;11.616;2022-11-30T07:05:43;2.50;99.90
9225;DHT22;4647;48.072;11.616;2022-11-30T07:08:11;2.60;99.90
9225;DHT22;4647;48.072;11.616;2022-11-30T07:10:39;2.60;99.90
9225;DHT22;4647;48.072;11.616;2022-11-30T07:13:09;2.60;99.90
9225;DHT22;4647;48.072;11.616;2022-11-30T07:15:36;2.60;99.90
9225;DHT22;4647;48.072;11.616;2022-11-30T07:18:03;2.60;99.90
9225;DHT22;4647;48.072;11.616;2022-11-30T07:20:32;2.60;99.90
9225;DHT22;4647;48.072;11.616;2022-11-30T07:22:59;2.60;99.90
9225;DHT22;4647;48.072;11.616;2022-11-30T07:25:46;2.60;99.90
9225;DHT22;4647;48.072;11.616;2022-11-30T07:28:31;2.70;99.90
9225;DHT22;4647;48.072;11.616;2022-11-30T07:30:58;2.70;99.90
9225;DHT22;4647;48.072;11.616;2022-11-30T07:33:25;2.70;99.90
9225;DHT22;4647;48.072;11.616;2022-11-30T07:35:53;2.80;99.90
9225;DHT22;4647;48.072;11.616;2022-11-30T07:38:20;2.80;99.90
9225;DHT22;4647;48.072;11.616;2022-11-30T07:40:47;2.70;99.90
9225;DHT22;4647;48.072;11.616;2022-11-30T07:43:14;2.80;99.90
9225;DHT22;4647;48.072;11.616;2022-11-30T07:45:42;2.80;99.90
9225;DHT22;4647;48.072;11.616;2022-11-30T07:48:09;2.80;99.90
9225;DHT22;4647;48.072;11.616;2022-11-30T07:50:35;2.80;99.90
9225;DHT22;4647;48.072;11.616;2022-11-30T07:53:04;2.90;99.90
9225;DHT22;4647;48.072;11.616;2022-11-30T07:55:30;2.90;99.90
9225;DHT22;4647;48.072;11.616;2022-11-30T07:57:57;2.90;99.90
9225;DHT22;4647;48.072;11.616;2022-11-30T08:00:24;2.90;99.90
9225;DHT22;4647;48.072;11.616;2022-11-30T08:02:51;2.90;99.90
9225;DHT22;4647;48.072;11.616;2022-11-30T08:05:18;2.80;99.90
9225;DHT22;4647;48.072;11.616;2022-11-30T08:07:49;2.70;99.90
9225;DHT22;4647;48.072;11.616;2022-11-30T08:10:18;2.80;99.90
9225;DHT22;4647;48.072;11.616;2022-11-30T08:12:45;2.80;99.90
9225;DHT22;4647;48.072;11.616;2022-11-30T08:15:13;2.90;99.90
9225;DHT22;4647;48.072;11.616;2022-11-30T08:17:40;2.90;99.90
9225;DHT22;4647;48.072;11.616;2022-11-30T08:20:08;2.90;99.90
9225;DHT22;4647;48.072;11.616;2022-11-30T08:22:36;3.00;99.90
9225;DHT22;4647;48.072;11.616;2022-11-30T08:25:03;3.00;99.90
9225;DHT22;4647;48.072;11.616;2022-11-30T08:27:32;3.10;99.90
9225;DHT22;4647;48.072;11.616;2022-11-30T08:29:59;3.20;99.90
9225;DHT22;4647;48.072;11.616;2022-11-30T08:32:26;3.20;99.90
9225;DHT22;4647;48.072;11.616;2022-11-30T08:34:52;3.20;99.90
9225;DHT22;4647;48.072;11.616;2022-11-30T08:37:19;3.20;99.90
9225;DHT22;4647;48.072;11.616;2022-11-30T08:39:46;3.20;99.90
9225;DHT22;4647;48.072;11.616;2022-11-30T08:42:13;3.20;99.90
9225;DHT22;4647;48.072;11.616;2022-11-30T08:44:41;3.30;99.90
9225;DHT22;4647;48.072;11.616;2022-11-30T08:47:08;3.30;99.90
9225;DHT22;4647;48.072;11.616;2022-11-30T08:49:35;3.40;99.90
9225;DHT22;4647;48.072;11.616;2022-11-30T08:52:03;3.40;99.90
9225;DHT22;4647;48.072;11.616;2022-11-30T08:54:30;3.40;99.90
9225;DHT22;4647;48.072;11.616;2022-11-30T08:56:57;3.40;99.90
9225;DHT22;4647;48.072;11.616;2022-11-30T08:59:24;3.50;99.90
9225;DHT22;4647;48.072;11.616;2022-11-30T09:01:52;3.50;99.90
9225;DHT22;4647;48.072;11.616;2022-11-30T09:04:19;3.50;99.90
9225;DHT22;4647;48.072;11.616;2022-11-30T09:06:46;3.50;99.90
9225;DHT22;4647;48.072;11.616;2022-11-30T09:09:13;3.50;99.90
9225;DHT22;4647;48.072;11.616;2022-11-30T09:11:40;3.50;99.90
9225;DHT22;4647;48.072;11.616;2022-11-30T09:14:09;3.50;99.90
9225;DHT22;4647;48.072;11.616;2022-11-30T09:16:36;3.50;99.90
9225;DHT22;4647;48.072;11.616;2022-11-30T09:19:04;3.40;99.90
9225;DHT22;4647;48.072;11.616;2022-11-30T09:21:31;3.30;99.90
9225;DHT22;4647;48.072;11.616;2022-11-30T09:23:57;3.20;99.90
9225;DHT22;4647;48.072;11.616;2022-11-30T09:26:24;3.30;99.90
9225;DHT22;4647;48.072;11.616;2022-11-30T09:28:52;3.20;99.90
9225;DHT22;4647;48.072;11.616;2022-11-30T09:31:21;3.10;99.90
9225;DHT22;4647;48.072;11.616;2022-11-30T09:33:48;3.10;99.90
9225;DHT22;4647;48.072;11.616;2022-11-30T09:36:18;3.20;99.90
9225;DHT22;4647;48.072;11.616;2022-11-30T09:38:45;3.30;99.90
9225;DHT22;4647;48.072;11.616;2022-11-30T09:41:26;3.20;99.90
9225;DHT22;4647;48.072;11.616;2022-11-30T09:44:02;3.30;99.90
9225;DHT22;4647;48.072;11.616;2022-11-30T09:46:36;3.20;99.90
9225;DHT22;4647;48.072;11.616;2022-11-30T09:49:07;3.20;99.90
9225;DHT22;4647;48.072;11.616;2022-11-30T09:51:43;3.30;99.90
9225;DHT22;4647;48.072;11.616;2022-11-30T09:54:13;3.50;99.90
9225;DHT22;4647;48.072;11.616;2022-11-30T09:56:42;3.60;99.90
9225;DHT22;4647;48.072;11.616;2022-11-30T09:59:15;3.80;99.90
9225;DHT22;4647;48.072;11.616;2022-11-30T10:01:44;3.90;99.90
9225;DHT22;4647;48.072;11.616;2022-11-30T10:04:19;3.90;99.90
9225;DHT22;4647;48.072;11.616;2022-11-30T10:06:55;4.00;99.90
9225;DHT22;4647;48.072;11.616;2022-11-30T10:09:31;3.70;99.90
9225;DHT22;4647;48.072;11.616;2022-11-30T10:12:03;3.70;99.90
9225;DHT22;4647;48.072;11.616;2022-11-30T10:14:58;3.60;99.90
9225;DHT22;4647;48.072;11.616;2022-11-30T10:17:36;3.40;99.90
9225;DHT22;4647;48.072;11.616;2022-11-30T10:20:16;3.50;99.90
9225;DHT22;4647;48.072;11.616;2022-11-30T10:22:59;3.50;99.90
9225;DHT22;4647;48.072;11.616;2022-11-30T10:25:38;3.40;99.90
9225;DHT22;4647;48.072;11.616;2022-11-30T10:28:15;3.30;99.90
9225;DHT22;4647;48.072;11.616;2022-11-30T10:30:42;3.40;99.90
9225;DHT22;4647;48.072;11.616;2022-11-30T10:33:14;3.40;99.90
9225;DHT22;4647;48.072;11.616;2022-11-30T10:35:46;3.50;99.90
9225;DHT22;4647;48.072;11.616;2022-11-30T10:38:20;3.50;99.90
9225;DHT22;4647;48.072;11.616;2022-11-30T10:40:51;3.60;99.90
9225;DHT22;4647;48.072;11.616;2022-11-30T10:43:25;3.50;99.90
9225;DHT22;4647;48.072;11.616;2022-11-30T10:45:53;3.60;99.90
9225;DHT22;4647;48.072;11.616;2022-11-30T10:48:25;3.50;99.90
9225;DHT22;4647;48.072;11.616;2022-11-30T10:50:53;3.70;99.90
9225;DHT22;4647;48.072;11.616;2022-11-30T10:53:22;3.80;99.90
9225;DHT22;4647;48.072;11.616;2022-11-30T10:55:55;3.70;99.90
9225;DHT22;4647;48.072;11.616;2022-11-30T10:58:28;3.70;99.90
9225;DHT22;4647;48.072;11.616;2022-11-30T11:01:02;3.80;99.90
9225;DHT22;4647;48.072;11.616;2022-11-30T11:03:29;3.90;99.90
9225;DHT22;4647;48.072;11.616;2022-11-30T11:06:05;3.90;99.90
9225;DHT22;4647;48.072;11.616;2022-11-30T11:08:34;3.90;99.90
9225;DHT22;4647;48.072;11.616;2022-11-30T11:11:02;4.10;99.90
9225;DHT22;4647;48.072;11.616;2022-11-30T11:13:37;4.00;99.90
9225;DHT22;4647;48.072;11.616;2022-11-30T11:16:06;4.00;99.90
9225;DHT22;4647;48.072;11.616;2022-11-30T11:18:34;4.00;99.90
9225;DHT22;4647;48.072;11.616;2022-11-30T11:21:04;4.00;99.90
9225;DHT22;4647;48.072;11.616;2022-11-30T11:23:35;3.80;99.90
9225;DHT22;4647;48.072;11.616;2022-11-30T11:26:03;4.00;99.90
9225;DHT22;4647;48.072;11.616;2022-11-30T11:28:31;3.90;99.90
9225;DHT22;4647;48.072;11.616;2022-11-30T11:30:59;3.90;99.90
9225;DHT22;4647;48.072;11.616;2022-11-30T11:33:49;3.80;99.90
9225;DHT22;4647;48.072;11.616;2022-11-30T11:36:24;4.00;99.90
9225;DHT22;4647;48.072;11.616;2022-11-30T11:38:53;3.90;99.90
9225;DHT22;4647;48.072;11.616;2022-11-30T11:41:24;3.80;99.90
9225;DHT22;4647;48.072;11.616;2022-11-30T11:43:58;3.80;99.90
9225;DHT22;4647;48.072;11.616;2022-11-30T11:46:27;3.80;99.90
9225;DHT22;4647;48.072;11.616;2022-11-30T11:48:57;3.70;99.90
9225;DHT22;4647;48.072;11.616;2022-11-30T11:51:30;3.80;99.90
9225;DHT22;4647;48.072;11.616;2022-11-30T11:54:01;3.60;99.90
9225;DHT22;4647;48.072;11.616;2022-11-30T11:56:31;3.60;99.90
9225;DHT22;4647;48.072;11.616;2022-11-30T11:59:02;3.60;99.90
9225;DHT22;4647;48.072;11.616;2022-11-30T12:01:40;3.80;99.90
9225;DHT22;4647;48.072;11.616;2022-11-30T12:04:25;3.80;99.90
9225;DHT22;4647;48.072;11.616;2022-11-30T12:06:58;3.80;99.90
9225;DHT22;4647;48.072;11.616;2022-11-30T12:09:31;3.70;99.90
9225;DHT22;4647;48.072;11.616;2022-11-30T12:12:00;3.70;99.90
9225;DHT22;4647;48.072;11.616;2022-11-30T12:14:33;3.70;99.90
9225;DHT22;4647;48.072;11.616;2022-11-30T12:17:15;3.70;99.90
9225;DHT22;4647;48.072;11.616;2022-11-30T12:25:31;3.80;99.90
9225;DHT22;4647;48.072;11.616;2022-11-30T12:28:12;3.60;99.90
9225;DHT22;4647;48.072;11.616;2022-11-30T12:30:46;3.50;99.90
9225;DHT22;4647;48.072;11.616;2022-11-30T12:33:27;3.50;99.90
9225;DHT22;4647;48.072;11.616;2022-11-30T12:36:03;3.50;99.90
9225;DHT22;4647;48.072;11.616;2022-11-30T12:38:40;3.60;99.90
9225;DHT22;4647;48.072;11.616;2022-11-30T12:41:22;3.70;99.90
9225;DHT22;4647;48.072;11.616;2022-11-30T12:44:01;3.60;99.90
9225;DHT22;4647;48.072;11.616;2022-11-30T12:46:34;3.70;99.90
9225;DHT22;4647;48.072;11.616;2022-11-30T12:49:14;3.60;99.90
9225;DHT22;4647;48.072;11.616;2022-11-30T12:51:49;3.60;99.90
9225;DHT22;4647;48.072;11.616;2022-11-30T12:54:23;3.60;99.90
9225;DHT22;4647;48.072;11.616;2022-11-30T12:56:55;3.60;99.90
9225;DHT22;4647;48.072;11.616;2022-11-30T12:59:27;3.50;99.90
9225;DHT22;4647;48.072;11.616;2022-11-30T13:02:13;3.60;99.90
9225;DHT22;4647;48.072;11.616;2022-11-30T13:04:46;3.80;99.90
9225;DHT22;4647;48.072;11.616;2022-11-30T13:07:21;3.80;99.90
9225;DHT22;4647;48.072;11.616;2022-11-30T13:09:52;3.80;99.90
9225;DHT22;4647;48.072;11.616;2022-11-30T13:12:24;3.90;99.90
9225;DHT22;4647;48.072;11.616;2022-11-30T13:15:02;3.90;99.90
9225;DHT22;4647;48.072;11.616;2022-11-30T13:17:29;3.80;99.90
9225;DHT22;4647;48.072;11.616;2022-11-30T13:19:59;3.90;99.90
9225;DHT22;4647;48.072;11.616;2022-11-30T13:22:41;3.90;99.90
9225;DHT22;4647;48.072;11.616;2022-11-30T13:25:21;4.10;99.90
9225;DHT22;4647;48.072;11.616;2022-11-30T13:28:00;4.10;99.90
9225;DHT22;4647;48.072;11.616;2022-11-30T13:30:33;4.00;99.90
9225;DHT22;4647;48.072;11.616;2022-11-30T13:36:05;3.90;99.90
9225;DHT22;4647;48.072;11.616;2022-11-30T13:38:39;4.10;99.90
9225;DHT22;4647;48.072;11.616;2022-11-30T13:41:07;4.10;99.90
9225;DHT22;4647;48.072;11.616;2022-11-30T13:43:45;4.00;99.90
9225;DHT22;4647;48.072;11.616;2022-11-30T13:46:14;4.00;99.90
9225;DHT22;4647;48.072;11.616;2022-11-30T13:48:42;4.00;99.90
9225;DHT22;4647;48.072;11.616;2022-11-30T13:51:10;3.90;99.90
9225;DHT22;4647;48.072;11.616;2022-11-30T13:53:39;3.90;99.90
9225;DHT22;4647;48.072;11.616;2022-11-30T13:56:31;3.80;99.90
9225;DHT22;4647;48.072;11.616;2022-11-30T13:59:32;3.70;99.90
9225;DHT22;4647;48.072;11.616;2022-11-30T14:05:22;3.50;99.90
9225;DHT22;4647;48.072;11.616;2022-11-30T14:08:28;3.50;99.90
9225;DHT22;4647;48.072;11.616;2022-11-30T14:11:36;3.50;99.90
9225;DHT22;4647;48.072;11.616;2022-11-30T14:14:43;3.30;99.90
9225;DHT22;4647;48.072;11.616;2022-11-30T14:17:17;3.30;99.90
9225;DHT22;4647;48.072;11.616;2022-11-30T14:19:46;3.30;99.90
9225;DHT22;4647;48.072;11.616;2022-11-30T14:22:13;3.30;99.90
9225;DHT22;4647;48.072;11.616;2022-11-30T14:24:43;3.40;99.90
9225;DHT22;4647;48.072;11.616;2022-11-30T14:27:15;3.30;99.90
9225;DHT22;4647;48.072;11.616;2022-11-30T14:29:47;3.20;99.90
9225;DHT22;4647;48.072;11.616;2022-11-30T14:32:32;3.20;99.90
9225;DHT22;4647;48.072;11.616;2022-11-30T14:35:05;3.10;99.90
9225;DHT22;4647;48.072;11.616;2022-11-30T14:37:39;3.00;99.90
9225;DHT22;4647;48.072;11.616;2022-11-30T14:40:12;3.10;99.90
9225;DHT22;4647;48.072;11.616;2022-11-30T14:42:46;3.10;99.90
9225;DHT22;4647;48.072;11.616;2022-11-30T14:45:18;3.10;99.90
9225;DHT22;4647;48.072;11.616;2022-11-30T14:47:44;3.00;99.90
9225;DHT22;4647;48.072;11.616;2022-11-30T14:50:21;2.90;99.90
9225;DHT22;4647;48.072;11.616;2022-11-30T14:52:58;2.80;99.90
9225;DHT22;4647;48.072;11.616;2022-11-30T14:55:32;2.90;99.90
9225;DHT22;4647;48.072;11.616;2022-11-30T14:58:11;2.90;99.90
9225;DHT22;4647;48.072;11.616;2022-11-30T15:00:42;2.90;99.90
9225;DHT22;4647;48.072;11.616;2022-11-30T15:03:18;2.90;99.90
9225;DHT22;4647;48.072;11.616;2022-11-30T15:05:45;2.90;99.90
9225;DHT22;4647;48.072;11.616;2022-11-30T15:08:16;2.90;99.90
9225;DHT22;4647;48.072;11.616;2022-11-30T15:10:43;2.80;99.90
9225;DHT22;4647;48.072;11.616;2022-11-30T15:13:12;2.80;99.90
9225;DHT22;4647;48.072;11.616;2022-11-30T15:15:51;2.70;99.90
9225;DHT22;4647;48.072;11.616;2022-11-30T15:18:18;2.70;99.90
9225;DHT22;4647;48.072;11.616;2022-11-30T15:20:49;2.60;99.90
9225;DHT22;4647;48.072;11.616;2022-11-30T15:23:17;2.60;99.90
9225;DHT22;4647;48.072;11.616;2022-11-30T15:25:46;2.50;99.90
9225;DHT22;4647;48.072;11.616;2022-11-30T15:28:16;2.50;99.90
9225;DHT22;4647;48.072;11.616;2022-11-30T15:30:46;2.50;99.90
9225;DHT22;4647;48.072;11.616;2022-11-30T15:33:19;2.50;99.90
9225;DHT22;4647;48.072;11.616;2022-11-30T15:35:48;2.40;99.90
9225;DHT22;4647;48.072;11.616;2022-11-30T15:38:18;2.30;99.90
9225;DHT22;4647;48.072;11.616;2022-11-30T15:40:46;2.30;99.90
9225;DHT22;4647;48.072;11.616;2022-11-30T15:43:20;2.30;99.90
9225;DHT22;4647;48.072;11.616;2022-11-30T15:45:53;2.30;99.90
9225;DHT22;4647;48.072;11.616;2022-11-30T15:48:30;2.30;99.90
9225;DHT22;4647;48.072;11.616;2022-11-30T15:50:57;2.30;99.90
9225;DHT22;4647;48.072;11.616;2022-11-30T15:53:30;2.30;99.90
9225;DHT22;4647;48.072;11.616;2022-11-30T15:55:59;2.20;99.90
9225;DHT22;4647;48.072;11.616;2022-11-30T15:58:29;2.20;99.90
9225;DHT22;4647;48.072;11.616;2022-11-30T16:01:04;2.20;99.90
9225;DHT22;4647;48.072;11.616;2022-11-30T16:03:34;2.20;99.90
9225;DHT22;4647;48.072;11.616;2022-11-30T16:06:03;2.20;99.90
9225;DHT22;4647;48.072;11.616;2022-11-30T16:08:31;2.10;99.90
9225;DHT22;4647;48.072;11.616;2022-11-30T16:10:58;2.10;99.90
9225;DHT22;4647;48.072;11.616;2022-11-30T16:13:28;2.00;99.90
9225;DHT22;4647;48.072;11.616;2022-11-30T16:15:55;2.00;99.90
9225;DHT22;4647;48.072;11.616;2022-11-30T16:18:26;2.10;99.90
9225;DHT22;4647;48.072;11.616;2022-11-30T16:20:56;2.00;99.90
9225;DHT22;4647;48.072;11.616;2022-11-30T16:23:23;2.00;99.90
9225;DHT22;4647;48.072;11.616;2022-11-30T16:25:51;2.00;99.90
9225;DHT22;4647;48.072;11.616;2022-11-30T16:28:48;2.00;99.90
9225;DHT22;4647;48.072;11.616;2022-11-30T16:31:18;1.90;99.90
9225;DHT22;4647;48.072;11.616;2022-11-30T16:33:46;1.90;99.90